aviador You're here:

LFQQ Decoded Metar

LILLE in FRANCE
Report Time2018-01-21 08:00:00
UTC Time2018-01-21 08:34:46
Flight Rules mvfr MVFR
Wind250° at 06 kt
W.Decomp.*RWY 26: 5.9 kt HW 1 kt LCW
RWY 20: 3.9 kt HW 4.6 kt RCW
W.Rank250° ranks 6
Current wind is below 250° avg. (9.1)
Visibility5000 m
Phenomena:Mist
Clouds:N/A
Expected CloudBase > 400 ft AGL from Temp-Dew spread
CeilingNone
Temp02°C (ISA -13)
Dew Point01°C (93% RH)
AAT-2.0°C
QNH1016 hPa
Density Alt-1,381 ft
Elevation171 ft
Report Wrong Elevation
Raw Report
LFQQ 210800Z AUTO 25006KT 5000 BR NSC 02/01 Q1016 NOSIG=

Extra information for LFQQ:More info

Metar Taf Metar & Taf Last 4 Metars F.Rules Stats Wind Profile Meteogram Temp Stats Airport Information Weather charts Add Link Nearby VenuesMetar ALERT Operation Metar Decoded Social comments